sensor_id;sensor_type;location;lat;lon;timestamp;temperature;humidity
48978;DHT22;34793;48.940;2.618;2022-07-21T00:01:10;22.50;98.40
48978;DHT22;34793;48.940;2.618;2022-07-21T00:03:36;22.50;98.50
48978;DHT22;34793;48.940;2.618;2022-07-21T00:06:02;22.60;98.20
48978;DHT22;34793;48.940;2.618;2022-07-21T00:08:28;22.50;98.50
48978;DHT22;34793;48.940;2.618;2022-07-21T00:10:53;22.60;98.30
48978;DHT22;34793;48.940;2.618;2022-07-21T00:13:19;22.50;98.40
48978;DHT22;34793;48.940;2.618;2022-07-21T00:15:45;22.50;98.60
48978;DHT22;34793;48.940;2.618;2022-07-21T00:18:11;22.50;98.50
48978;DHT22;34793;48.940;2.618;2022-07-21T00:20:36;22.40;98.70
48978;DHT22;34793;48.940;2.618;2022-07-21T00:23:02;22.30;98.60
48978;DHT22;34793;48.940;2.618;2022-07-21T00:25:28;22.40;98.40
48978;DHT22;34793;48.940;2.618;2022-07-21T00:27:54;22.40;98.30
48978;DHT22;34793;48.940;2.618;2022-07-21T00:30:20;22.30;98.10
48978;DHT22;34793;48.940;2.618;2022-07-21T00:32:46;22.20;98.20
48978;DHT22;34793;48.940;2.618;2022-07-21T00:35:12;22.10;98.40
48978;DHT22;34793;48.940;2.618;2022-07-21T00:37:38;22.20;98.30
48978;DHT22;34793;48.940;2.618;2022-07-21T00:40:06;22.10;98.40
48978;DHT22;34793;48.940;2.618;2022-07-21T00:42:32;22.00;98.50
48978;DHT22;34793;48.940;2.618;2022-07-21T00:44:59;21.90;98.60
48978;DHT22;34793;48.940;2.618;2022-07-21T00:47:27;21.90;98.20
48978;DHT22;34793;48.940;2.618;2022-07-21T00:49:55;21.90;98.60
48978;DHT22;34793;48.940;2.618;2022-07-21T00:52:21;21.80;98.30
48978;DHT22;34793;48.940;2.618;2022-07-21T00:54:46;21.80;98.30
48978;DHT22;34793;48.940;2.618;2022-07-21T00:57:13;21.80;97.90
48978;DHT22;34793;48.940;2.618;2022-07-21T00:59:40;21.70;97.70
48978;DHT22;34793;48.940;2.618;2022-07-21T01:02:06;21.70;97.70
48978;DHT22;34793;48.940;2.618;2022-07-21T01:04:32;21.70;97.80
48978;DHT22;34793;48.940;2.618;2022-07-21T01:07:01;21.60;97.80
48978;DHT22;34793;48.940;2.618;2022-07-21T01:09:26;21.50;98.00
48978;DHT22;34793;48.940;2.618;2022-07-21T01:11:52;21.50;98.00
48978;DHT22;34793;48.940;2.618;2022-07-21T01:14:18;21.40;98.00
48978;DHT22;34793;48.940;2.618;2022-07-21T01:16:44;21.40;98.10
48978;DHT22;34793;48.940;2.618;2022-07-21T01:19:10;21.40;98.20
48978;DHT22;34793;48.940;2.618;2022-07-21T01:21:41;21.30;98.70
48978;DHT22;34793;48.940;2.618;2022-07-21T01:24:08;21.30;98.50
48978;DHT22;34793;48.940;2.618;2022-07-21T01:26:47;21.30;98.30
48978;DHT22;34793;48.940;2.618;2022-07-21T01:29:15;21.20;98.50
48978;DHT22;34793;48.940;2.618;2022-07-21T01:31:42;21.10;98.40
48978;DHT22;34793;48.940;2.618;2022-07-21T01:34:09;21.00;98.90
48978;DHT22;34793;48.940;2.618;2022-07-21T01:36:35;21.00;98.80
48978;DHT22;34793;48.940;2.618;2022-07-21T01:39:01;21.00;98.50
48978;DHT22;34793;48.940;2.618;2022-07-21T01:41:46;20.90;98.40
48978;DHT22;34793;48.940;2.618;2022-07-21T01:44:31;20.90;98.40
48978;DHT22;34793;48.940;2.618;2022-07-21T01:46:57;20.90;98.60
48978;DHT22;34793;48.940;2.618;2022-07-21T01:52:26;20.90;99.00
48978;DHT22;34793;48.940;2.618;2022-07-21T01:54:54;20.80;98.50
48978;DHT22;34793;48.940;2.618;2022-07-21T01:57:20;20.90;98.30
48978;DHT22;34793;48.940;2.618;2022-07-21T01:59:45;21.00;98.40
48978;DHT22;34793;48.940;2.618;2022-07-21T02:02:11;21.00;98.50
48978;DHT22;34793;48.940;2.618;2022-07-21T02:04:37;20.90;98.60
48978;DHT22;34793;48.940;2.618;2022-07-21T02:07:03;20.80;98.80
48978;DHT22;34793;48.940;2.618;2022-07-21T02:09:28;20.80;98.60
48978;DHT22;34793;48.940;2.618;2022-07-21T02:11:54;20.60;98.90
48978;DHT22;34793;48.940;2.618;2022-07-21T02:14:20;20.60;99.20
48978;DHT22;34793;48.940;2.618;2022-07-21T02:16:45;20.60;98.90
48978;DHT22;34793;48.940;2.618;2022-07-21T02:19:11;20.60;98.50
48978;DHT22;34793;48.940;2.618;2022-07-21T02:21:37;20.80;98.70
48978;DHT22;34793;48.940;2.618;2022-07-21T02:24:03;20.60;98.70
48978;DHT22;34793;48.940;2.618;2022-07-21T02:26:28;20.60;98.90
48978;DHT22;34793;48.940;2.618;2022-07-21T02:28:54;20.60;98.50
48978;DHT22;34793;48.940;2.618;2022-07-21T02:31:20;20.60;98.40
48978;DHT22;34793;48.940;2.618;2022-07-21T02:33:45;20.60;98.60
48978;DHT22;34793;48.940;2.618;2022-07-21T02:36:11;20.40;99.20
48978;DHT22;34793;48.940;2.618;2022-07-21T02:38:37;20.40;99.00
48978;DHT22;34793;48.940;2.618;2022-07-21T02:41:03;20.40;99.10
48978;DHT22;34793;48.940;2.618;2022-07-21T02:43:29;20.40;99.00
48978;DHT22;34793;48.940;2.618;2022-07-21T02:45:54;20.50;99.10
48978;DHT22;34793;48.940;2.618;2022-07-21T02:48:20;20.50;99.00
48978;DHT22;34793;48.940;2.618;2022-07-21T02:50:45;20.50;98.70
48978;DHT22;34793;48.940;2.618;2022-07-21T02:53:20;20.50;98.70
48978;DHT22;34793;48.940;2.618;2022-07-21T02:55:49;20.40;98.80
48978;DHT22;34793;48.940;2.618;2022-07-21T02:58:27;20.40;98.70
48978;DHT22;34793;48.940;2.618;2022-07-21T03:00:58;20.30;98.90
48978;DHT22;34793;48.940;2.618;2022-07-21T03:03:26;20.30;99.20
48978;DHT22;34793;48.940;2.618;2022-07-21T03:05:52;20.30;99.40
48978;DHT22;34793;48.940;2.618;2022-07-21T03:08:18;20.20;99.40
48978;DHT22;34793;48.940;2.618;2022-07-21T03:10:44;20.20;99.10
48978;DHT22;34793;48.940;2.618;2022-07-21T03:13:38;20.20;99.30
48978;DHT22;34793;48.940;2.618;2022-07-21T03:16:03;20.20;99.10
48978;DHT22;34793;48.940;2.618;2022-07-21T03:18:29;20.10;99.20
48978;DHT22;34793;48.940;2.618;2022-07-21T03:20:56;20.10;99.50
48978;DHT22;34793;48.940;2.618;2022-07-21T03:23:23;20.10;99.70
48978;DHT22;34793;48.940;2.618;2022-07-21T03:25:48;20.10;99.60
48978;DHT22;34793;48.940;2.618;2022-07-21T03:28:14;20.00;99.90
48978;DHT22;34793;48.940;2.618;2022-07-21T03:30:40;20.10;99.50
48978;DHT22;34793;48.940;2.618;2022-07-21T03:33:06;20.20;99.60
48978;DHT22;34793;48.940;2.618;2022-07-21T03:35:31;20.20;99.70
48978;DHT22;34793;48.940;2.618;2022-07-21T03:37:59;20.10;99.80
48978;DHT22;34793;48.940;2.618;2022-07-21T03:40:28;20.10;99.60
48978;DHT22;34793;48.940;2.618;2022-07-21T03:42:57;20.10;99.70
48978;DHT22;34793;48.940;2.618;2022-07-21T03:45:24;20.10;99.50
48978;DHT22;34793;48.940;2.618;2022-07-21T03:47:50;20.10;99.90
48978;DHT22;34793;48.940;2.618;2022-07-21T03:50:15;20.30;99.90
48978;DHT22;34793;48.940;2.618;2022-07-21T03:52:47;20.30;99.80
48978;DHT22;34793;48.940;2.618;2022-07-21T03:55:13;20.30;99.80
48978;DHT22;34793;48.940;2.618;2022-07-21T04:00:20;20.50;99.70
48978;DHT22;34793;48.940;2.618;2022-07-21T04:02:47;20.50;99.90
48978;DHT22;34793;48.940;2.618;2022-07-21T04:05:13;20.40;99.50
48978;DHT22;34793;48.940;2.618;2022-07-21T04:07:41;20.50;99.60
48978;DHT22;34793;48.940;2.618;2022-07-21T04:10:08;20.50;99.90
48978;DHT22;34793;48.940;2.618;2022-07-21T04:12:34;20.40;99.90
48978;DHT22;34793;48.940;2.618;2022-07-21T04:15:00;20.40;99.60
48978;DHT22;34793;48.940;2.618;2022-07-21T04:17:26;20.30;99.70
48978;DHT22;34793;48.940;2.618;2022-07-21T04:19:51;20.30;99.50
48978;DHT22;34793;48.940;2.618;2022-07-21T04:22:17;20.30;99.60
48978;DHT22;34793;48.940;2.618;2022-07-21T04:24:42;20.30;99.40
48978;DHT22;34793;48.940;2.618;2022-07-21T04:27:08;20.30;99.90
48978;DHT22;34793;48.940;2.618;2022-07-21T04:29:34;20.40;99.90
48978;DHT22;34793;48.940;2.618;2022-07-21T04:31:59;20.50;99.90
48978;DHT22;34793;48.940;2.618;2022-07-21T04:34:26;20.60;99.90
48978;DHT22;34793;48.940;2.618;2022-07-21T04:36:52;20.70;99.90
48978;DHT22;34793;48.940;2.618;2022-07-21T04:39:18;20.80;99.90
48978;DHT22;34793;48.940;2.618;2022-07-21T04:41:43;20.80;99.90
48978;DHT22;34793;48.940;2.618;2022-07-21T04:44:09;20.80;99.90
48978;DHT22;34793;48.940;2.618;2022-07-21T04:46:34;20.80;99.90
48978;DHT22;34793;48.940;2.618;2022-07-21T04:49:00;20.90;99.90
48978;DHT22;34793;48.940;2.618;2022-07-21T04:51:26;20.80;99.90
48978;DHT22;34793;48.940;2.618;2022-07-21T04:53:51;20.80;99.90
48978;DHT22;34793;48.940;2.618;2022-07-21T04:56:17;20.70;99.90
48978;DHT22;34793;48.940;2.618;2022-07-21T04:58:42;20.80;99.90
48978;DHT22;34793;48.940;2.618;2022-07-21T05:01:08;20.90;99.90
48978;DHT22;34793;48.940;2.618;2022-07-21T05:03:33;21.00;99.90
48978;DHT22;34793;48.940;2.618;2022-07-21T05:05:59;21.10;99.90
48978;DHT22;34793;48.940;2.618;2022-07-21T05:08:25;21.10;99.90
48978;DHT22;34793;48.940;2.618;2022-07-21T05:10:52;21.10;99.90
48978;DHT22;34793;48.940;2.618;2022-07-21T05:13:17;21.00;99.90
48978;DHT22;34793;48.940;2.618;2022-07-21T05:15:43;21.00;99.90
48978;DHT22;34793;48.940;2.618;2022-07-21T05:18:09;21.10;99.90
48978;DHT22;34793;48.940;2.618;2022-07-21T05:20:34;21.20;99.90
48978;DHT22;34793;48.940;2.618;2022-07-21T05:23:00;21.20;99.90
48978;DHT22;34793;48.940;2.618;2022-07-21T05:25:27;21.40;99.90
48978;DHT22;34793;48.940;2.618;2022-07-21T05:27:54;21.40;99.90
48978;DHT22;34793;48.940;2.618;2022-07-21T05:30:19;21.60;99.90
48978;DHT22;34793;48.940;2.618;2022-07-21T05:32:45;21.60;99.90
48978;DHT22;34793;48.940;2.618;2022-07-21T05:35:11;21.80;99.90
48978;DHT22;34793;48.940;2.618;2022-07-21T05:37:40;22.00;99.90
48978;DHT22;34793;48.940;2.618;2022-07-21T05:40:09;22.00;99.90
48978;DHT22;34793;48.940;2.618;2022-07-21T05:42:35;22.00;99.90
48978;DHT22;34793;48.940;2.618;2022-07-21T05:45:02;22.00;99.90
48978;DHT22;34793;48.940;2.618;2022-07-21T05:47:29;21.90;99.90
48978;DHT22;34793;48.940;2.618;2022-07-21T05:49:55;22.00;99.90
48978;DHT22;34793;48.940;2.618;2022-07-21T05:52:21;21.90;99.90
48978;DHT22;34793;48.940;2.618;2022-07-21T05:54:46;22.00;99.90
48978;DHT22;34793;48.940;2.618;2022-07-21T05:57:12;22.00;99.90
48978;DHT22;34793;48.940;2.618;2022-07-21T05:59:37;22.10;99.90
48978;DHT22;34793;48.940;2.618;2022-07-21T06:02:03;22.00;99.90
48978;DHT22;34793;48.940;2.618;2022-07-21T06:04:29;22.00;99.80
48978;DHT22;34793;48.940;2.618;2022-07-21T06:06:54;22.10;99.90
48978;DHT22;34793;48.940;2.618;2022-07-21T06:09:20;22.10;99.80
48978;DHT22;34793;48.940;2.618;2022-07-21T06:11:46;22.30;99.90
48978;DHT22;34793;48.940;2.618;2022-07-21T06:14:11;22.40;99.90
48978;DHT22;34793;48.940;2.618;2022-07-21T06:16:37;22.50;99.50
48978;DHT22;34793;48.940;2.618;2022-07-21T06:19:05;22.60;99.70
48978;DHT22;34793;48.940;2.618;2022-07-21T06:21:32;22.60;99.60
48978;DHT22;34793;48.940;2.618;2022-07-21T06:23:58;22.60;99.20
48978;DHT22;34793;48.940;2.618;2022-07-21T06:26:23;22.70;98.80
48978;DHT22;34793;48.940;2.618;2022-07-21T06:28:49;22.70;98.70
48978;DHT22;34793;48.940;2.618;2022-07-21T06:31:15;22.80;99.00
48978;DHT22;34793;48.940;2.618;2022-07-21T06:33:40;22.90;98.50
48978;DHT22;34793;48.940;2.618;2022-07-21T06:36:08;23.20;98.60
48978;DHT22;34793;48.940;2.618;2022-07-21T06:38:33;23.30;98.30
48978;DHT22;34793;48.940;2.618;2022-07-21T06:40:59;23.40;97.90
48978;DHT22;34793;48.940;2.618;2022-07-21T06:43:25;23.40;97.60
48978;DHT22;34793;48.940;2.618;2022-07-21T06:45:50;23.30;97.70
48978;DHT22;34793;48.940;2.618;2022-07-21T06:48:16;23.30;97.60
48978;DHT22;34793;48.940;2.618;2022-07-21T06:50:42;23.40;97.60
48978;DHT22;34793;48.940;2.618;2022-07-21T06:53:08;23.40;97.70
48978;DHT22;34793;48.940;2.618;2022-07-21T06:55:34;23.50;97.60
48978;DHT22;34793;48.940;2.618;2022-07-21T06:58:15;23.50;97.60
48978;DHT22;34793;48.940;2.618;2022-07-21T07:00:42;23.50;97.30
48978;DHT22;34793;48.940;2.618;2022-07-21T07:03:08;23.80;97.50
48978;DHT22;34793;48.940;2.618;2022-07-21T07:05:34;23.90;97.50
48978;DHT22;34793;48.940;2.618;2022-07-21T07:08:00;23.80;97.50
48978;DHT22;34793;48.940;2.618;2022-07-21T07:10:26;23.90;96.80
48978;DHT22;34793;48.940;2.618;2022-07-21T07:12:52;23.90;96.70
48978;DHT22;34793;48.940;2.618;2022-07-21T07:15:17;23.90;96.40
48978;DHT22;34793;48.940;2.618;2022-07-21T07:17:43;23.90;96.60
48978;DHT22;34793;48.940;2.618;2022-07-21T07:20:09;23.80;96.70
48978;DHT22;34793;48.940;2.618;2022-07-21T07:22:35;23.80;97.10
48978;DHT22;34793;48.940;2.618;2022-07-21T07:25:01;23.80;97.10
48978;DHT22;34793;48.940;2.618;2022-07-21T07:27:26;23.90;96.80
48978;DHT22;34793;48.940;2.618;2022-07-21T07:29:52;24.00;96.60
48978;DHT22;34793;48.940;2.618;2022-07-21T07:32:17;23.90;96.90
48978;DHT22;34793;48.940;2.618;2022-07-21T07:34:46;24.00;96.60
48978;DHT22;34793;48.940;2.618;2022-07-21T07:37:12;24.00;97.10
48978;DHT22;34793;48.940;2.618;2022-07-21T07:39:37;24.20;96.60
48978;DHT22;34793;48.940;2.618;2022-07-21T07:42:04;24.40;96.10
48978;DHT22;34793;48.940;2.618;2022-07-21T07:44:31;24.50;95.60
48978;DHT22;34793;48.940;2.618;2022-07-21T07:46:56;24.60;95.30
48978;DHT22;34793;48.940;2.618;2022-07-21T07:49:22;24.80;95.50
48978;DHT22;34793;48.940;2.618;2022-07-21T07:51:48;24.70;95.20
48978;DHT22;34793;48.940;2.618;2022-07-21T07:54:14;24.60;94.80
48978;DHT22;34793;48.940;2.618;2022-07-21T07:56:40;24.60;95.40
48978;DHT22;34793;48.940;2.618;2022-07-21T07:59:07;24.60;95.60
48978;DHT22;34793;48.940;2.618;2022-07-21T08:01:32;24.70;95.00
48978;DHT22;34793;48.940;2.618;2022-07-21T08:03:58;24.90;95.00
48978;DHT22;34793;48.940;2.618;2022-07-21T08:06:24;24.90;95.10
48978;DHT22;34793;48.940;2.618;2022-07-21T08:08:49;25.00;94.80
48978;DHT22;34793;48.940;2.618;2022-07-21T08:11:15;25.00;94.70
48978;DHT22;34793;48.940;2.618;2022-07-21T08:13:41;25.00;94.20
48978;DHT22;34793;48.940;2.618;2022-07-21T08:16:07;25.00;94.80
48978;DHT22;34793;48.940;2.618;2022-07-21T08:18:33;25.20;94.70
48978;DHT22;34793;48.940;2.618;2022-07-21T08:20:58;25.30;94.20
48978;DHT22;34793;48.940;2.618;2022-07-21T08:23:24;25.30;93.70
48978;DHT22;34793;48.940;2.618;2022-07-21T08:25:50;25.30;93.50
48978;DHT22;34793;48.940;2.618;2022-07-21T08:28:16;25.20;93.70
48978;DHT22;34793;48.940;2.618;2022-07-21T08:30:42;25.10;94.20
48978;DHT22;34793;48.940;2.618;2022-07-21T08:33:08;25.20;94.10
48978;DHT22;34793;48.940;2.618;2022-07-21T08:35:33;25.20;93.90
48978;DHT22;34793;48.940;2.618;2022-07-21T08:38:04;25.10;93.40
48978;DHT22;34793;48.940;2.618;2022-07-21T08:40:32;25.10;93.90
48978;DHT22;34793;48.940;2.618;2022-07-21T08:42:59;25.10;93.60
48978;DHT22;34793;48.940;2.618;2022-07-21T08:45:25;25.10;93.60
48978;DHT22;34793;48.940;2.618;2022-07-21T08:47:54;25.40;94.40
48978;DHT22;34793;48.940;2.618;2022-07-21T08:50:22;25.70;93.80
48978;DHT22;34793;48.940;2.618;2022-07-21T08:52:50;25.80;93.70
48978;DHT22;34793;48.940;2.618;2022-07-21T08:55:16;26.00;93.30
48978;DHT22;34793;48.940;2.618;2022-07-21T08:57:42;26.20;93.00
48978;DHT22;34793;48.940;2.618;2022-07-21T09:00:09;26.20;92.90
48978;DHT22;34793;48.940;2.618;2022-07-21T09:02:37;26.40;92.40
48978;DHT22;34793;48.940;2.618;2022-07-21T09:05:07;26.60;92.40
48978;DHT22;34793;48.940;2.618;2022-07-21T09:07:54;26.70;91.60
48978;DHT22;34793;48.940;2.618;2022-07-21T09:10:28;26.70;91.40
48978;DHT22;34793;48.940;2.618;2022-07-21T09:12:56;26.90;93.00
48978;DHT22;34793;48.940;2.618;2022-07-21T09:15:23;27.40;92.30
48978;DHT22;34793;48.940;2.618;2022-07-21T09:18:13;27.80;91.30
48978;DHT22;34793;48.940;2.618;2022-07-21T09:20:50;28.30;90.70
48978;DHT22;34793;48.940;2.618;2022-07-21T09:23:18;28.70;90.00
48978;DHT22;34793;48.940;2.618;2022-07-21T09:25:53;28.90;87.80
48978;DHT22;34793;48.940;2.618;2022-07-21T09:28:24;28.80;86.90
48978;DHT22;34793;48.940;2.618;2022-07-21T09:31:08;28.80;88.00
48978;DHT22;34793;48.940;2.618;2022-07-21T09:36:09;28.70;87.20
48978;DHT22;34793;48.940;2.618;2022-07-21T09:38:43;28.60;87.00
48978;DHT22;34793;48.940;2.618;2022-07-21T09:41:12;28.30;87.20
48978;DHT22;34793;48.940;2.618;2022-07-21T09:46:10;28.50;87.90
48978;DHT22;34793;48.940;2.618;2022-07-21T09:48:38;28.50;86.50
48978;DHT22;34793;48.940;2.618;2022-07-21T09:51:53;28.20;86.90
48978;DHT22;34793;48.940;2.618;2022-07-21T09:54:13;27.90;88.10
48978;DHT22;34793;48.940;2.618;2022-07-21T09:56:41;27.90;88.10
48978;DHT22;34793;48.940;2.618;2022-07-21T09:59:09;27.90;89.80
48978;DHT22;34793;48.940;2.618;2022-07-21T10:01:35;27.80;89.80
48978;DHT22;34793;48.940;2.618;2022-07-21T10:04:04;27.90;89.70
48978;DHT22;34793;48.940;2.618;2022-07-21T10:06:36;28.10;89.50
48978;DHT22;34793;48.940;2.618;2022-07-21T10:09:04;28.50;88.50
48978;DHT22;34793;48.940;2.618;2022-07-21T10:11:30;28.60;86.70
48978;DHT22;34793;48.940;2.618;2022-07-21T10:13:56;28.70;86.70
48978;DHT22;34793;48.940;2.618;2022-07-21T10:16:22;28.40;85.10
48978;DHT22;34793;48.940;2.618;2022-07-21T10:21:54;28.80;86.80
48978;DHT22;34793;48.940;2.618;2022-07-21T10:24:21;29.10;87.20
48978;DHT22;34793;48.940;2.618;2022-07-21T10:32:16;30.30;80.70
48978;DHT22;34793;48.940;2.618;2022-07-21T10:34:43;30.10;80.80
48978;DHT22;34793;48.940;2.618;2022-07-21T10:37:09;30.10;81.60
48978;DHT22;34793;48.940;2.618;2022-07-21T10:39:35;30.40;84.30
48978;DHT22;34793;48.940;2.618;2022-07-21T10:42:16;30.50;83.30
48978;DHT22;34793;48.940;2.618;2022-07-21T10:44:46;30.70;81.60
48978;DHT22;34793;48.940;2.618;2022-07-21T10:47:20;31.00;81.70
48978;DHT22;34793;48.940;2.618;2022-07-21T10:50:00;31.30;78.30
48978;DHT22;34793;48.940;2.618;2022-07-21T10:57:37;31.30;77.00
48978;DHT22;34793;48.940;2.618;2022-07-21T11:00:19;31.10;79.20
48978;DHT22;34793;48.940;2.618;2022-07-21T11:02:50;31.00;76.00
48978;DHT22;34793;48.940;2.618;2022-07-21T11:05:17;30.70;77.40
48978;DHT22;34793;48.940;2.618;2022-07-21T11:08:08;30.50;80.30
48978;DHT22;34793;48.940;2.618;2022-07-21T11:10:36;30.60;78.30
48978;DHT22;34793;48.940;2.618;2022-07-21T11:13:01;31.00;78.70
48978;DHT22;34793;48.940;2.618;2022-07-21T11:16:02;31.30;77.60
48978;DHT22;34793;48.940;2.618;2022-07-21T11:18:31;31.50;76.00
48978;DHT22;34793;48.940;2.618;2022-07-21T11:21:10;31.20;76.70
48978;DHT22;34793;48.940;2.618;2022-07-21T11:23:38;31.00;77.00
48978;DHT22;34793;48.940;2.618;2022-07-21T11:26:04;31.10;77.80
48978;DHT22;34793;48.940;2.618;2022-07-21T11:28:29;31.50;79.80
48978;DHT22;34793;48.940;2.618;2022-07-21T11:31:18;31.80;77.80
48978;DHT22;34793;48.940;2.618;2022-07-21T11:33:47;31.90;74.50
48978;DHT22;34793;48.940;2.618;2022-07-21T11:36:28;31.90;73.60
48978;DHT22;34793;48.940;2.618;2022-07-21T11:41:29;31.80;76.30
48978;DHT22;34793;48.940;2.618;2022-07-21T11:43:55;31.90;74.80
48978;DHT22;34793;48.940;2.618;2022-07-21T11:46:21;32.10;73.70
48978;DHT22;34793;48.940;2.618;2022-07-21T11:48:46;32.20;73.40
48978;DHT22;34793;48.940;2.618;2022-07-21T11:51:12;32.10;74.00
48978;DHT22;34793;48.940;2.618;2022-07-21T11:53:47;31.90;71.50
48978;DHT22;34793;48.940;2.618;2022-07-21T11:56:16;31.70;73.10
48978;DHT22;34793;48.940;2.618;2022-07-21T11:58:45;31.30;73.50
48978;DHT22;34793;48.940;2.618;2022-07-21T12:01:10;31.10;74.00
48978;DHT22;34793;48.940;2.618;2022-07-21T12:03:49;30.90;73.90
48978;DHT22;34793;48.940;2.618;2022-07-21T12:06:16;30.70;74.10
48978;DHT22;34793;48.940;2.618;2022-07-21T12:08:43;30.80;76.10
48978;DHT22;34793;48.940;2.618;2022-07-21T12:11:10;31.00;75.50
48978;DHT22;34793;48.940;2.618;2022-07-21T12:13:58;31.10;73.80
48978;DHT22;34793;48.940;2.618;2022-07-21T12:16:24;31.10;76.70
48978;DHT22;34793;48.940;2.618;2022-07-21T12:19:09;31.10;74.80
48978;DHT22;34793;48.940;2.618;2022-07-21T12:21:51;31.10;73.10
48978;DHT22;34793;48.940;2.618;2022-07-21T12:24:18;30.90;74.20
48978;DHT22;34793;48.940;2.618;2022-07-21T12:26:45;30.80;73.60
48978;DHT22;34793;48.940;2.618;2022-07-21T12:29:24;30.50;73.70
48978;DHT22;34793;48.940;2.618;2022-07-21T12:31:50;30.30;74.30
48978;DHT22;34793;48.940;2.618;2022-07-21T12:34:16;30.20;74.10
48978;DHT22;34793;48.940;2.618;2022-07-21T12:36:44;30.30;73.60
48978;DHT22;34793;48.940;2.618;2022-07-21T12:39:21;30.20;75.80
48978;DHT22;34793;48.940;2.618;2022-07-21T12:42:08;30.00;75.30
48978;DHT22;34793;48.940;2.618;2022-07-21T12:44:34;30.00;76.10
48978;DHT22;34793;48.940;2.618;2022-07-21T12:50:36;30.10;76.10
48978;DHT22;34793;48.940;2.618;2022-07-21T12:53:09;30.10;74.60
48978;DHT22;34793;48.940;2.618;2022-07-21T12:55:36;30.30;75.10
48978;DHT22;34793;48.940;2.618;2022-07-21T12:58:01;30.40;75.20
48978;DHT22;34793;48.940;2.618;2022-07-21T13:00:27;30.50;74.70
48978;DHT22;34793;48.940;2.618;2022-07-21T13:02:55;30.60;75.20
48978;DHT22;34793;48.940;2.618;2022-07-21T13:05:23;30.50;73.70
48978;DHT22;34793;48.940;2.618;2022-07-21T13:07:49;30.50;74.30
48978;DHT22;34793;48.940;2.618;2022-07-21T13:10:15;30.50;74.20
48978;DHT22;34793;48.940;2.618;2022-07-21T13:12:41;30.50;74.80
48978;DHT22;34793;48.940;2.618;2022-07-21T13:15:07;30.70;74.70
48978;DHT22;34793;48.940;2.618;2022-07-21T13:17:33;30.70;74.60
48978;DHT22;34793;48.940;2.618;2022-07-21T13:19:58;30.80;73.40
48978;DHT22;34793;48.940;2.618;2022-07-21T13:22:24;30.70;72.90
48978;DHT22;34793;48.940;2.618;2022-07-21T13:24:50;30.60;73.70
48978;DHT22;34793;48.940;2.618;2022-07-21T13:27:15;30.40;74.40
48978;DHT22;34793;48.940;2.618;2022-07-21T13:29:41;30.20;73.70
48978;DHT22;34793;48.940;2.618;2022-07-21T13:32:32;29.90;73.20
48978;DHT22;34793;48.940;2.618;2022-07-21T13:34:57;30.00;74.70
48978;DHT22;34793;48.940;2.618;2022-07-21T13:37:23;30.10;73.80
48978;DHT22;34793;48.940;2.618;2022-07-21T13:39:49;30.40;73.80
48978;DHT22;34793;48.940;2.618;2022-07-21T13:42:14;30.50;72.70
48978;DHT22;34793;48.940;2.618;2022-07-21T13:44:40;30.40;73.80
48978;DHT22;34793;48.940;2.618;2022-07-21T13:47:05;30.40;73.40
48978;DHT22;34793;48.940;2.618;2022-07-21T13:49:31;30.60;74.20
48978;DHT22;34793;48.940;2.618;2022-07-21T13:51:57;30.60;72.70
48978;DHT22;34793;48.940;2.618;2022-07-21T13:54:22;31.00;73.50
48978;DHT22;34793;48.940;2.618;2022-07-21T13:56:48;31.30;72.40
48978;DHT22;34793;48.940;2.618;2022-07-21T13:59:14;31.30;71.50
48978;DHT22;34793;48.940;2.618;2022-07-21T14:01:39;31.40;71.80
48978;DHT22;34793;48.940;2.618;2022-07-21T14:04:05;31.60;72.50
48978;DHT22;34793;48.940;2.618;2022-07-21T14:06:31;31.50;71.30
48978;DHT22;34793;48.940;2.618;2022-07-21T14:08:56;31.70;71.30
48978;DHT22;34793;48.940;2.618;2022-07-21T14:11:22;31.50;71.30
48978;DHT22;34793;48.940;2.618;2022-07-21T14:17:11;31.50;72.70
48978;DHT22;34793;48.940;2.618;2022-07-21T14:19:37;31.70;70.30
48978;DHT22;34793;48.940;2.618;2022-07-21T14:22:02;31.60;69.40
48978;DHT22;34793;48.940;2.618;2022-07-21T14:24:28;31.40;70.80
48978;DHT22;34793;48.940;2.618;2022-07-21T14:27:12;31.40;70.10
48978;DHT22;34793;48.940;2.618;2022-07-21T14:29:38;31.30;69.20
48978;DHT22;34793;48.940;2.618;2022-07-21T14:32:04;31.50;70.00
48978;DHT22;34793;48.940;2.618;2022-07-21T14:34:29;31.70;70.20
48978;DHT22;34793;48.940;2.618;2022-07-21T14:36:55;31.80;68.60
48978;DHT22;34793;48.940;2.618;2022-07-21T14:39:20;32.00;67.80
48978;DHT22;34793;48.940;2.618;2022-07-21T14:41:46;32.40;68.80
48978;DHT22;34793;48.940;2.618;2022-07-21T14:44:13;32.40;68.50
48978;DHT22;34793;48.940;2.618;2022-07-21T14:46:38;32.40;68.30
48978;DHT22;34793;48.940;2.618;2022-07-21T14:49:04;32.20;68.60
48978;DHT22;34793;48.940;2.618;2022-07-21T14:51:30;32.30;67.70
48978;DHT22;34793;48.940;2.618;2022-07-21T14:53:55;32.40;67.60
48978;DHT22;34793;48.940;2.618;2022-07-21T14:56:21;32.50;68.60
48978;DHT22;34793;48.940;2.618;2022-07-21T14:58:47;32.60;66.90
48978;DHT22;34793;48.940;2.618;2022-07-21T15:01:12;32.70;66.30
48978;DHT22;34793;48.940;2.618;2022-07-21T15:03:38;32.60;66.90
48978;DHT22;34793;48.940;2.618;2022-07-21T15:06:04;32.60;65.80
48978;DHT22;34793;48.940;2.618;2022-07-21T15:08:31;32.40;66.80
48978;DHT22;34793;48.940;2.618;2022-07-21T15:10:56;32.50;66.70
48978;DHT22;34793;48.940;2.618;2022-07-21T15:13:22;32.70;67.20
48978;DHT22;34793;48.940;2.618;2022-07-21T15:15:48;32.70;66.50
48978;DHT22;34793;48.940;2.618;2022-07-21T15:18:14;32.70;65.10
48978;DHT22;34793;48.940;2.618;2022-07-21T15:20:41;32.70;65.30
48978;DHT22;34793;48.940;2.618;2022-07-21T15:23:07;33.10;66.70
48978;DHT22;34793;48.940;2.618;2022-07-21T15:25:32;33.40;65.50
48978;DHT22;34793;48.940;2.618;2022-07-21T15:27:58;33.70;64.00
48978;DHT22;34793;48.940;2.618;2022-07-21T15:30:24;33.40;63.10
48978;DHT22;34793;48.940;2.618;2022-07-21T15:32:49;33.00;63.00
48978;DHT22;34793;48.940;2.618;2022-07-21T15:35:15;33.00;63.30
48978;DHT22;34793;48.940;2.618;2022-07-21T15:37:40;32.80;62.60
48978;DHT22;34793;48.940;2.618;2022-07-21T15:40:07;32.90;64.40
48978;DHT22;34793;48.940;2.618;2022-07-21T15:42:33;33.00;63.90
48978;DHT22;34793;48.940;2.618;2022-07-21T15:45:02;32.50;63.00
48978;DHT22;34793;48.940;2.618;2022-07-21T15:47:27;32.30;63.70
48978;DHT22;34793;48.940;2.618;2022-07-21T15:49:53;32.30;66.10
48978;DHT22;34793;48.940;2.618;2022-07-21T15:52:18;32.00;64.20
48978;DHT22;34793;48.940;2.618;2022-07-21T15:54:44;32.00;64.80
48978;DHT22;34793;48.940;2.618;2022-07-21T15:57:10;31.80;64.30
48978;DHT22;34793;48.940;2.618;2022-07-21T15:59:36;32.00;65.60
48978;DHT22;34793;48.940;2.618;2022-07-21T16:02:14;32.10;64.60
48978;DHT22;34793;48.940;2.618;2022-07-21T16:04:40;32.00;64.20
48978;DHT22;34793;48.940;2.618;2022-07-21T16:07:07;32.00;64.20